Time;durP1;ratioP1;P1;durP2;ratioP2;P2;SDS_P1;SDS_P2;PMS_P1;PMS_P2;Temp;Humidity;BMP_temperature;BMP_pressure;BME280_temperature;BME280_humidity;BME280_pressure;Samples;Min_cycle;Max_cycle;Signal;HPM_P1;HPM_P2
2023/03/16 00:00:53;;;;;;;;;4.00;4.00;;;;;15.96;52.86;101196.38;5079191;27;45304;-76
2023/03/16 00:03:19;;;;;;;;;4.67;4.67;;;;;15.98;52.67;101193.50;5080980;27;53837;-77
2023/03/16 00:05:52;;;;;;;;;4.00;4.00;;;;;15.66;53.17;101196.59;5079491;27;47754;-77
2023/03/16 00:08:18;;;;;;;;;4.33;4.33;;;;;15.59;53.81;101204.56;5080817;27;45263;-77
2023/03/16 00:10:46;;;;;;;;;3.00;3.00;;;;;15.55;55.38;101200.66;5081119;28;45298;-76
2023/03/16 00:13:23;;;;;;;;;5.33;5.00;;;;;15.54;55.51;101196.31;5080880;27;45468;-76
2023/03/16 00:15:54;;;;;;;;;4.00;4.00;;;;;15.51;56.65;101186.78;5080770;27;45415;-76
2023/03/16 00:18:20;;;;;;;;;4.33;4.33;;;;;15.45;54.92;101182.25;5080529;28;45263;-77
2023/03/16 00:20:50;;;;;;;;;4.00;4.00;;;;;15.44;55.38;101191.28;5079637;27;45295;-77
2023/03/16 00:23:16;;;;;;;;;5.00;5.00;;;;;15.39;55.65;101185.72;5080057;27;45552;-77
2023/03/16 00:25:41;;;;;;;;;4.00;4.00;;;;;15.40;55.29;101193.56;5080654;27;45356;-76
2023/03/16 00:28:06;;;;;;;;;1.67;1.67;;;;;15.44;55.28;101179.78;5080682;28;45371;-76
2023/03/16 00:30:32;;;;;;;;;5.33;4.00;;;;;15.35;55.33;101179.91;5080540;28;45325;-76
2023/03/16 00:32:57;;;;;;;;;5.33;5.33;;;;;15.29;55.42;101174.50;5080285;27;45499;-76
2023/03/16 00:35:23;;;;;;;;;3.33;3.33;;;;;15.29;55.81;101169.16;5080592;27;45238;-77
2023/03/16 00:37:49;;;;;;;;;5.00;5.00;;;;;15.22;55.43;101167.25;5079395;27;45274;-77
2023/03/16 00:40:14;;;;;;;;;3.67;3.67;;;;;15.21;55.32;101168.28;5080799;28;46400;-76
2023/03/16 00:42:40;;;;;;;;;4.00;3.00;;;;;15.24;57.26;101173.22;5080169;28;45307;-76
2023/03/16 00:45:06;;;;;;;;;5.00;4.67;;;;;15.30;57.00;101171.66;5078399;28;47161;-77
2023/03/16 00:47:33;;;;;;;;;6.00;4.67;;;;;15.24;56.64;101175.91;5079861;28;45394;-76
2023/03/16 00:50:00;;;;;;;;;4.33;4.33;;;;;15.22;55.75;101177.97;5079202;28;45454;-76
2023/03/16 00:52:26;;;;;;;;;3.33;3.33;;;;;15.24;56.12;101178.59;5080126;27;45327;-75
2023/03/16 00:54:53;;;;;;;;;3.00;3.00;;;;;15.23;56.25;101168.06;5080419;27;45330;-77
2023/03/16 00:57:21;;;;;;;;;6.00;6.00;;;;;15.15;55.66;101158.34;5078378;28;45589;-76
2023/03/16 00:59:47;;;;;;;;;4.00;4.00;;;;;15.17;55.78;101161.66;5080351;27;45715;-77
2023/03/16 01:02:15;;;;;;;;;4.00;4.00;;;;;15.11;55.46;101151.72;5079884;27;45365;-76
2023/03/16 01:04:41;;;;;;;;;3.00;3.00;;;;;15.01;55.93;101155.56;5079829;27;45318;-76
2023/03/16 01:07:09;;;;;;;;;4.33;4.00;;;;;14.95;55.96;101142.97;5079930;27;45286;-76
2023/03/16 01:09:35;;;;;;;;;6.00;6.00;;;;;14.92;54.63;101159.41;5080241;27;45765;-76
2023/03/16 01:12:06;;;;;;;;;6.00;6.00;;;;;14.87;55.01;101156.47;5075257;28;45523;-76
2023/03/16 01:14:33;;;;;;;;;4.00;4.00;;;;;14.89;55.67;101162.47;5070025;28;48529;-76
2023/03/16 01:17:00;;;;;;;;;5.67;5.00;;;;;14.85;55.82;101155.84;5079757;27;45464;-76
2023/03/16 01:19:25;;;;;;;;;5.67;4.00;;;;;14.87;56.99;101161.81;5080047;27;45322;-76
2023/03/16 01:21:51;;;;;;;;;5.00;5.00;;;;;14.79;56.47;101151.25;5079228;28;45230;-76
2023/03/16 01:24:16;;;;;;;;;3.00;3.00;;;;;14.84;57.74;101162.19;5078530;28;47501;-76
2023/03/16 01:26:41;;;;;;;;;4.67;4.00;;;;;14.80;58.73;101145.72;5079139;28;47010;-76
2023/03/16 01:29:07;;;;;;;;;6.33;5.67;;;;;14.72;57.60;101135.09;5079722;28;46843;-77
2023/03/16 01:31:32;;;;;;;;;4.67;4.00;;;;;14.69;57.87;101132.84;5065705;27;45240;-76
2023/03/16 01:33:57;;;;;;;;;3.33;3.33;;;;;14.70;58.91;101129.13;5079571;28;45690;-76
2023/03/16 01:36:23;;;;;;;;;5.00;3.67;;;;;14.62;58.04;101120.22;5079200;27;51726;-77
2023/03/16 01:38:48;;;;;;;;;4.00;4.00;;;;;14.58;57.87;101129.63;5079627;27;45558;-75
2023/03/16 01:41:14;;;;;;;;;5.00;5.00;;;;;14.52;58.14;101114.38;5079177;27;45400;-77
2023/03/16 01:43:40;;;;;;;;;4.00;4.00;;;;;14.45;58.19;101111.63;5079252;27;45322;-76
2023/03/16 01:46:06;;;;;;;;;3.00;3.00;;;;;14.38;57.75;101084.00;5078935;28;45768;-76
2023/03/16 01:48:52;;;;;;;;;4.00;4.00;;;;;14.37;57.91;101085.84;5079687;28;45472;-76
2023/03/16 01:51:32;;;;;;;;;3.67;3.67;;;;;14.29;58.73;101088.66;5079673;27;45260;-77
2023/03/16 01:54:25;;;;;;;;;2.33;2.33;;;;;14.27;58.54;101099.53;5089169;27;47627;-76
2023/03/16 01:56:57;;;;;;;;;5.00;5.00;;;;;14.23;58.48;101108.94;5072081;28;45630;-76
2023/03/16 01:59:26;;;;;;;;;4.33;4.33;;;;;14.19;58.49;101117.53;5079490;27;45309;-76
2023/03/16 02:01:52;;;;;;;;;3.00;3.00;;;;;14.19;59.52;101099.63;5077157;28;46127;-77
2023/03/16 02:04:39;;;;;;;;;3.33;3.33;;;;;14.21;59.50;101102.13;5079307;27;46412;-77
2023/03/16 02:07:06;;;;;;;;;3.00;3.00;;;;;14.20;60.03;101084.44;5064195;28;45323;-76
2023/03/16 02:09:36;;;;;;;;;4.00;4.00;;;;;14.19;60.52;101090.81;5078042;28;45321;-76
2023/03/16 02:12:02;;;;;;;;;3.67;3.00;;;;;14.16;59.56;101067.13;5077740;27;46032;-76
2023/03/16 02:14:28;;;;;;;;;6.00;6.00;;;;;14.20;59.09;101069.22;5077839;28;46321;-76
2023/03/16 02:16:54;;;;;;;;;4.67;4.67;;;;;14.15;59.66;101071.63;5078852;28;45431;-76
2023/03/16 02:19:34;;;;;;;;;6.67;5.67;;;;;14.20;59.03;101071.06;5077911;28;45828;-76
2023/03/16 02:22:07;;;;;;;;;4.00;4.00;;;;;14.11;59.52;101054.31;5077434;28;46279;-77
2023/03/16 02:24:34;;;;;;;;;5.00;4.00;;;;;14.15;59.76;101074.31;5081652;27;45329;-76
2023/03/16 02:27:03;;;;;;;;;4.33;4.33;;;;;14.22;59.21;101067.19;5082550;27;45218;-76
2023/03/16 02:30:14;;;;;;;;;4.67;4.00;;;;;14.18;59.20;101062.41;5081154;27;45447;-76
2023/03/16 02:32:41;;;;;;;;;3.00;3.00;;;;;14.13;59.65;101058.47;5039930;28;45522;-76
2023/03/16 02:35:07;;;;;;;;;4.67;4.00;;;;;14.08;59.70;101052.88;5082226;27;46219;-76
2023/03/16 02:37:33;;;;;;;;;2.33;2.33;;;;;13.97;59.36;101059.53;5081681;28;45448;-76
2023/03/16 02:40:00;;;;;;;;;4.00;4.00;;;;;14.00;59.58;101053.81;5081416;28;45387;-77
2023/03/16 02:42:27;;;;;;;;;7.33;5.00;;;;;13.94;59.66;101054.56;5082042;27;45458;-76
2023/03/16 02:44:56;;;;;;;;;7.00;4.67;;;;;13.91;59.20;101052.25;5081171;28;48254;-76
2023/03/16 02:47:34;;;;;;;;;4.33;4.33;;;;;13.88;60.30;101039.28;5080454;27;45467;-76
2023/03/16 02:50:05;;;;;;;;;5.00;4.67;;;;;13.92;60.48;101042.41;5081168;28;45347;-76
2023/03/16 02:52:30;;;;;;;;;5.67;5.67;;;;;13.84;60.06;101040.69;5082013;27;45310;-76
2023/03/16 02:54:55;;;;;;;;;4.00;4.00;;;;;13.79;60.36;101037.75;5082234;27;46137;-77
2023/03/16 02:57:21;;;;;;;;;3.33;3.33;;;;;13.77;60.78;101048.63;5080613;28;45874;-75
2023/03/16 02:59:46;;;;;;;;;3.00;3.00;;;;;13.78;59.96;101044.94;5092139;27;45334;-76
2023/03/16 03:02:11;;;;;;;;;4.33;4.33;;;;;13.74;60.89;101028.44;5068832;27;45295;-76
2023/03/16 03:04:37;;;;;;;;;4.33;4.33;;;;;13.73;60.51;101025.97;5061416;28;55633;-77
2023/03/16 03:07:04;;;;;;;;;3.67;3.67;;;;;13.77;59.76;101037.94;5077921;27;45314;-76
2023/03/16 03:09:33;;;;;;;;;5.00;4.33;;;;;13.76;59.92;101025.59;5082384;27;45366;-76
2023/03/16 03:11:59;;;;;;;;;2.00;2.00;;;;;13.74;60.26;101017.78;5081838;27;45499;-76
2023/03/16 03:14:24;;;;;;;;;4.33;4.33;;;;;13.70;60.86;100999.63;5081829;27;45789;-76
2023/03/16 03:16:51;;;;;;;;;4.67;4.67;;;;;13.73;59.98;101012.63;5080214;28;45258;-78
2023/03/16 03:19:17;;;;;;;;;5.00;5.00;;;;;13.65;60.58;100999.38;5080741;28;45408;-76
2023/03/16 03:21:42;;;;;;;;;4.67;4.00;;;;;13.67;60.80;101000.00;5081220;27;46126;-77
2023/03/16 03:24:08;;;;;;;;;6.00;5.00;;;;;13.68;61.08;101002.50;5079964;28;53266;-76
2023/03/16 03:26:34;;;;;;;;;4.00;3.67;;;;;13.65;60.76;101005.56;5081554;27;45610;-76
2023/03/16 03:29:00;;;;;;;;;4.67;4.67;;;;;13.62;60.26;101012.09;5081800;27;45284;-77
2023/03/16 03:31:25;;;;;;;;;3.00;3.00;;;;;13.60;60.64;101014.13;5079512;27;46806;-77
2023/03/16 03:33:52;;;;;;;;;4.00;4.00;;;;;13.50;61.14;101011.75;5081675;27;45315;-76
2023/03/16 03:36:17;;;;;;;;;3.67;3.67;;;;;13.45;60.48;101008.78;5081559;28;45359;-77
2023/03/16 03:38:43;;;;;;;;;2.33;2.33;;;;;13.40;60.96;101000.50;5071422;27;45317;-77
2023/03/16 03:41:08;;;;;;;;;4.33;4.33;;;;;13.39;60.97;101004.19;5078327;28;45441;-76
2023/03/16 03:43:34;;;;;;;;;2.67;2.33;;;;;13.35;61.56;100992.25;5081595;28;46447;-76
2023/03/16 03:46:00;;;;;;;;;3.67;3.00;;;;;13.30;62.01;101000.81;5081117;27;45282;-76
2023/03/16 03:48:27;;;;;;;;;4.00;4.00;;;;;13.32;62.06;101006.75;5081531;27;45336;-76
2023/03/16 03:50:52;;;;;;;;;1.33;1.33;;;;;13.21;62.15;101004.59;5079585;27;46178;-76
2023/03/16 03:53:18;;;;;;;;;2.33;2.33;;;;;13.13;62.61;100998.34;5079612;28;47336;-76
2023/03/16 03:55:43;;;;;;;;;4.67;4.00;;;;;13.10;62.57;100993.38;5081006;27;45346;-77
2023/03/16 03:58:09;;;;;;;;;4.00;3.00;;;;;13.11;62.68;100988.88;5080064;28;45710;-76
2023/03/16 04:00:34;;;;;;;;;3.00;2.00;;;;;13.10;62.78;100992.53;5079917;27;45303;-77
2023/03/16 04:03:00;;;;;;;;;5.67;4.00;;;;;13.13;62.06;100989.50;5081013;27;46200;-77
2023/03/16 04:05:26;;;;;;;;;3.00;3.00;;;;;13.11;62.53;100972.84;5080569;27;45361;-76
2023/03/16 04:07:56;;;;;;;;;4.00;3.00;;;;;13.16;62.26;100983.78;5081299;27;45435;-76
2023/03/16 04:10:29;;;;;;;;;2.67;2.67;;;;;13.37;60.99;100987.53;5067442;27;45417;-76
2023/03/16 04:12:58;;;;;;;;;5.00;4.00;;;;;13.39;60.93;100982.84;5080924;27;45559;-76
2023/03/16 04:15:24;;;;;;;;;3.00;3.00;;;;;13.47;59.98;100980.03;5080408;27;46348;-76
2023/03/16 04:17:51;;;;;;;;;2.00;2.00;;;;;13.43;61.26;100984.13;5079844;28;45354;-77
2023/03/16 04:20:18;;;;;;;;;3.00;3.00;;;;;13.47;60.92;100981.91;5079163;27;47425;-77
2023/03/16 04:22:45;;;;;;;;;3.33;3.33;;;;;13.52;60.74;100984.84;5080276;27;46369;-77
2023/03/16 04:25:13;;;;;;;;;3.00;3.00;;;;;13.47;59.96;100980.03;5079444;28;45541;-76
2023/03/16 04:27:39;;;;;;;;;2.00;2.00;;;;;13.45;59.31;100973.25;5080984;27;45326;-76
2023/03/16 04:30:07;;;;;;;;;3.00;2.33;;;;;13.50;59.55;100976.22;5079011;28;46454;-76
2023/03/16 04:32:33;;;;;;;;;4.00;4.00;;;;;13.57;59.93;100977.13;5080488;27;45586;-77
2023/03/16 04:34:58;;;;;;;;;3.67;3.00;;;;;13.60;60.41;100970.56;5080548;27;45302;-76
2023/03/16 04:37:24;;;;;;;;;3.00;3.00;;;;;13.49;59.43;100962.03;5080663;27;45361;-76
2023/03/16 04:39:49;;;;;;;;;4.33;4.00;;;;;13.49;59.51;100964.72;5080493;27;45403;-76
2023/03/16 04:42:14;;;;;;;;;5.00;5.00;;;;;13.49;59.89;100959.38;5080558;28;46290;-77
2023/03/16 04:44:43;;;;;;;;;4.00;4.00;;;;;13.43;59.21;100953.91;5078776;28;49390;-77
2023/03/16 04:47:12;;;;;;;;;3.00;3.00;;;;;13.39;59.32;100956.16;5079663;28;45335;-77
2023/03/16 04:49:37;;;;;;;;;3.00;3.00;;;;;13.37;59.88;100955.50;5080377;27;45534;-76
2023/03/16 04:52:03;;;;;;;;;4.00;3.00;;;;;13.45;59.49;100954.56;5080436;27;45243;-76
2023/03/16 04:54:29;;;;;;;;;3.00;3.00;;;;;13.37;58.15;100953.66;5080603;28;45381;-77
2023/03/16 04:56:55;;;;;;;;;4.00;3.00;;;;;13.31;59.04;100949.06;5080354;27;45306;-76
2023/03/16 04:59:20;;;;;;;;;2.33;2.33;;;;;13.39;58.56;100948.13;5080129;27;45278;-76
2023/03/16 05:01:46;;;;;;;;;4.00;4.00;;;;;13.40;57.88;100939.09;5078645;28;48598;-77
2023/03/16 05:04:11;;;;;;;;;3.67;3.00;;;;;13.45;57.26;100942.06;5078934;28;45402;-77
2023/03/16 05:06:37;;;;;;;;;5.00;4.00;;;;;13.48;58.08;100941.69;5079773;28;45310;-76
2023/03/16 05:09:04;;;;;;;;;4.33;4.33;;;;;13.55;57.98;100946.25;5080273;27;45351;-76
2023/03/16 05:11:30;;;;;;;;;3.00;3.00;;;;;13.52;58.53;100941.34;5080036;27;45421;-77
2023/03/16 05:13:55;;;;;;;;;4.00;4.00;;;;;13.50;58.79;100942.31;5080228;28;45425;-76
2023/03/16 05:16:20;;;;;;;;;4.00;4.00;;;;;13.44;58.68;100932.38;5079348;27;45924;-76
2023/03/16 05:18:46;;;;;;;;;4.67;3.00;;;;;13.50;58.23;100936.19;5065765;28;46265;-76
2023/03/16 05:21:11;;;;;;;;;2.33;2.33;;;;;13.49;58.03;100946.03;5079518;28;45280;-76
2023/03/16 05:23:37;;;;;;;;;2.00;2.00;;;;;13.47;58.80;100939.19;5080028;27;45288;-76
2023/03/16 05:26:03;;;;;;;;;3.33;2.33;;;;;13.49;58.67;100934.47;5079717;27;45295;-77
2023/03/16 05:28:28;;;;;;;;;4.00;3.00;;;;;13.40;57.37;100925.75;5078205;28;46122;-77
2023/03/16 05:30:55;;;;;;;;;3.00;3.00;;;;;13.20;58.53;100928.22;5065682;27;46376;-77
2023/03/16 05:33:20;;;;;;;;;2.67;2.67;;;;;13.12;59.16;100913.13;5078589;28;45328;-76
2023/03/16 05:35:46;;;;;;;;;3.00;3.00;;;;;13.18;59.45;100923.06;5079469;27;45425;-77
2023/03/16 05:38:11;;;;;;;;;3.33;3.33;;;;;13.16;59.82;100911.72;5078296;28;45969;-76
2023/03/16 05:40:37;;;;;;;;;3.00;3.00;;;;;13.08;59.30;100909.19;5078455;27;46326;-78
2023/03/16 05:43:03;;;;;;;;;4.00;4.00;;;;;13.07;60.01;100928.84;5078634;28;45401;-77
2023/03/16 05:45:29;;;;;;;;;2.00;2.00;;;;;13.08;60.47;100925.19;5077751;28;45459;-76
2023/03/16 05:47:55;;;;;;;;;1.67;1.67;;;;;13.03;59.95;100924.91;5066184;27;45299;-76
2023/03/16 05:50:20;;;;;;;;;3.00;3.00;;;;;12.98;60.05;100914.78;5078506;28;46553;-77
2023/03/16 05:52:47;;;;;;;;;2.67;2.33;;;;;13.00;60.95;100926.91;5079119;27;45460;-78
2023/03/16 05:55:14;;;;;;;;;4.00;2.33;;;;;13.00;60.30;100936.78;5078057;28;45378;-77
2023/03/16 05:57:40;;;;;;;;;1.67;1.67;;;;;12.98;61.73;100936.97;5079207;28;45296;-76
2023/03/16 06:00:15;;;;;;;;;3.33;3.00;;;;;12.96;61.13;100938.19;5078886;27;45243;-76
2023/03/16 06:02:41;;;;;;;;;3.33;3.33;;;;;12.93;60.96;100931.34;5079378;27;45390;-76
2023/03/16 06:05:07;;;;;;;;;2.67;2.67;;;;;12.97;61.29;100943.34;5078145;28;45327;-76
2023/03/16 06:07:33;;;;;;;;;3.00;3.00;;;;;12.93;61.36;100941.22;5078741;28;45454;-76
2023/03/16 06:09:59;;;;;;;;;4.67;4.67;;;;;12.91;61.98;100944.06;5077918;28;48189;-76
2023/03/16 06:12:24;;;;;;;;;2.33;2.33;;;;;12.89;62.60;100938.06;5079220;27;45361;-76
2023/03/16 06:14:49;;;;;;;;;3.67;3.00;;;;;12.84;61.88;100924.47;5077732;28;50376;-76
2023/03/16 06:17:14;;;;;;;;;2.00;2.00;;;;;12.75;61.92;100919.22;5078793;28;48888;-76
2023/03/16 06:19:40;;;;;;;;;1.33;1.33;;;;;12.70;62.14;100915.47;5079151;27;45329;-76
2023/03/16 06:22:05;;;;;;;;;3.00;2.00;;;;;12.67;61.60;100923.81;5078634;27;48268;-76
2023/03/16 06:24:30;;;;;;;;;4.00;4.00;;;;;12.66;61.23;100920.31;5077658;28;45378;-76
2023/03/16 06:26:56;;;;;;;;;1.33;1.33;;;;;12.67;61.82;100927.34;5078720;28;45357;-76
2023/03/16 06:29:21;;;;;;;;;1.33;1.33;;;;;12.73;62.38;100934.59;5077198;28;59201;-76
2023/03/16 06:31:46;;;;;;;;;2.00;2.00;;;;;12.73;62.13;100920.44;5078189;28;45460;-76
2023/03/16 06:34:12;;;;;;;;;3.00;3.00;;;;;12.76;62.03;100925.41;5065670;28;45849;-76
2023/03/16 06:36:38;;;;;;;;;1.00;1.00;;;;;12.79;61.83;100926.88;5078716;28;45321;-76
2023/03/16 06:39:04;;;;;;;;;2.00;2.00;;;;;12.87;60.98;100937.44;5077719;28;47088;-76
2023/03/16 06:41:29;;;;;;;;;3.00;3.00;;;;;12.86;62.34;100927.78;5064491;28;45283;-76
2023/03/16 06:43:55;;;;;;;;;2.67;2.00;;;;;12.92;61.67;100931.53;5064026;28;45334;-76
2023/03/16 06:46:20;;;;;;;;;2.00;2.00;;;;;12.92;61.53;100929.69;5076740;27;45559;-77
2023/03/16 06:48:46;;;;;;;;;4.00;3.00;;;;;12.96;62.05;100927.50;5078581;28;48885;-78
2023/03/16 06:51:11;;;;;;;;;3.00;3.00;;;;;13.06;61.91;100943.22;5078268;27;45338;-77
2023/03/16 06:53:37;;;;;;;;;2.33;2.33;;;;;13.07;62.41;100928.84;5078812;27;45458;-77
2023/03/16 06:56:02;;;;;;;;;2.67;2.00;;;;;13.10;61.25;100934.66;5078202;28;45558;-77
2023/03/16 06:58:27;;;;;;;;;2.33;2.00;;;;;13.18;61.44;100928.41;5078464;28;45450;-77
2023/03/16 07:00:53;;;;;;;;;2.00;2.00;;;;;13.26;61.43;100927.47;5076763;28;45259;-75
2023/03/16 07:03:18;;;;;;;;;3.00;3.00;;;;;13.31;60.50;100934.88;5075827;28;45650;-77
2023/03/16 07:05:44;;;;;;;;;3.00;3.00;;;;;13.32;59.65;100925.88;5065900;27;45415;-77
2023/03/16 07:08:09;;;;;;;;;4.33;2.00;;;;;13.35;59.55;100920.97;5073937;28;45441;-78
2023/03/16 07:10:34;;;;;;;;;5.00;4.00;;;;;13.42;60.24;100913.06;5065304;28;47129;-77
2023/03/16 07:13:00;;;;;;;;;3.67;3.67;;;;;13.60;59.47;100920.66;5077205;27;45285;-76
2023/03/16 07:15:25;;;;;;;;;1.33;1.33;;;;;13.53;59.07;100914.41;5067725;28;45353;-76
2023/03/16 07:17:51;;;;;;;;;2.33;2.00;;;;;13.65;58.92;100911.25;5073769;27;46256;-76
2023/03/16 07:20:18;;;;;;;;;2.67;2.67;;;;;13.68;59.04;100911.69;5080945;27;45480;-75
2023/03/16 07:22:44;;;;;;;;;3.00;2.33;;;;;13.78;58.39;100911.38;5074779;28;45412;-76
2023/03/16 07:25:10;;;;;;;;;5.00;5.00;;;;;13.80;59.16;100903.97;5068010;27;45341;-76
2023/03/16 07:27:36;;;;;;;;;3.33;3.33;;;;;13.81;60.54;100891.47;5078274;27;46292;-76
2023/03/16 07:30:04;;;;;;;;;3.00;3.00;;;;;13.92;60.29;100909.63;5067755;27;45457;-76
2023/03/16 07:32:31;;;;;;;;;4.00;4.00;;;;;13.94;59.10;100907.59;5073164;27;45570;-75
2023/03/16 07:34:57;;;;;;;;;2.33;2.33;;;;;13.91;57.55;100908.00;5076985;28;45410;-76
2023/03/16 07:37:23;;;;;;;;;2.00;2.00;;;;;14.03;58.21;100912.84;5080671;27;45298;-76
2023/03/16 07:39:50;;;;;;;;;5.00;2.33;;;;;14.07;58.34;100900.72;5081210;27;45277;-76
2023/03/16 07:42:16;;;;;;;;;3.00;3.00;;;;;14.11;58.02;100902.81;5081223;27;45322;-76
2023/03/16 07:44:41;;;;;;;;;3.00;2.00;;;;;14.11;57.51;100900.16;5080770;27;45329;-76
2023/03/16 07:47:08;;;;;;;;;3.33;3.33;;;;;14.22;58.39;100893.44;5080474;28;46477;-76
2023/03/16 07:49:33;;;;;;;;;2.00;2.00;;;;;14.22;56.66;100888.06;5076813;27;45339;-78
2023/03/16 07:51:59;;;;;;;;;2.00;2.00;;;;;14.32;58.95;100878.91;5070010;28;45491;-76
2023/03/16 07:54:24;;;;;;;;;1.67;1.67;;;;;14.33;57.70;100878.69;5080548;27;46248;-77
2023/03/16 07:56:49;;;;;;;;;5.00;4.00;;;;;14.42;57.66;100874.03;5073265;27;46083;-76
2023/03/16 07:59:14;;;;;;;;;3.00;3.00;;;;;14.52;57.51;100866.47;5075142;28;49240;-76
2023/03/16 08:01:40;;;;;;;;;2.00;1.67;;;;;14.64;57.21;100880.09;5068609;27;45248;-76
2023/03/16 08:04:05;;;;;;;;;2.33;2.33;;;;;14.70;55.92;100873.13;5095820;27;46362;-76
2023/03/16 08:06:31;;;;;;;;;2.00;2.00;;;;;14.84;56.51;100874.06;5079500;28;51031;-77
2023/03/16 08:08:56;;;;;;;;;1.67;1.67;;;;;14.93;55.04;100868.56;5080455;28;52461;-76
2023/03/16 08:11:24;;;;;;;;;3.00;2.33;;;;;15.07;56.53;100877.44;5079899;28;45582;-76
2023/03/16 08:13:53;;;;;;;;;3.00;3.00;;;;;15.22;57.00;100875.44;5079123;28;46179;-76
2023/03/16 08:16:22;;;;;;;;;3.00;2.00;;;;;15.34;56.79;100875.66;5076200;27;45757;-75
2023/03/16 08:18:49;;;;;;;;;3.00;3.00;;;;;15.51;56.45;100872.59;5079170;28;45442;-74
2023/03/16 08:21:15;;;;;;;;;3.33;3.00;;;;;15.58;53.84;100881.47;5075603;27;45732;-76
2023/03/16 08:23:42;;;;;;;;;3.67;3.33;;;;;15.61;54.65;100867.66;5072319;27;45524;-77
2023/03/16 08:26:08;;;;;;;;;2.00;2.00;;;;;15.75;55.36;100881.88;5068048;28;45493;-76
2023/03/16 08:28:35;;;;;;;;;4.00;4.00;;;;;15.85;55.50;100877.97;5067511;27;45390;-77
2023/03/16 08:31:00;;;;;;;;;5.00;4.00;;;;;15.94;54.29;100879.41;5077777;27;45340;-77
2023/03/16 08:33:26;;;;;;;;;4.00;4.00;;;;;15.99;53.89;100874.31;5075376;27;45315;-77
2023/03/16 08:35:52;;;;;;;;;5.67;4.00;;;;;16.08;53.78;100877.59;5079839;27;46078;-75
2023/03/16 08:38:18;;;;;;;;;3.00;3.00;;;;;16.08;52.37;100885.63;5076672;27;45414;-76
2023/03/16 08:40:47;;;;;;;;;2.00;2.00;;;;;16.07;53.37;100881.28;5073283;28;45336;-76
2023/03/16 08:43:16;;;;;;;;;3.00;3.00;;;;;16.14;51.96;100878.63;5078822;28;46350;-76
2023/03/16 08:45:44;;;;;;;;;4.67;4.67;;;;;16.12;53.41;100868.09;5079605;27;46125;-75
2023/03/16 08:48:11;;;;;;;;;2.00;2.00;;;;;16.28;53.24;100876.72;5072492;27;45338;-76
2023/03/16 08:50:39;;;;;;;;;3.67;3.67;;;;;16.34;53.67;100873.22;5072056;28;45503;-76
2023/03/16 08:53:04;;;;;;;;;5.00;4.00;;;;;16.37;52.87;100878.16;5068425;28;45386;-76
2023/03/16 08:55:29;;;;;;;;;4.00;4.00;;;;;16.43;52.38;100881.84;5076087;27;49747;-76
2023/03/16 08:57:54;;;;;;;;;4.00;3.33;;;;;16.48;51.49;100883.91;5070474;28;57251;-76
2023/03/16 09:00:20;;;;;;;;;3.00;3.00;;;;;16.59;52.76;100893.19;5069155;28;47703;-76
2023/03/16 09:02:46;;;;;;;;;3.33;2.33;;;;;16.60;50.83;100879.53;5062786;27;45608;-76
2023/03/16 09:05:14;;;;;;;;;3.00;3.00;;;;;16.68;51.12;100883.03;5079689;28;45468;-76
2023/03/16 09:07:39;;;;;;;;;5.00;4.00;;;;;16.66;52.36;100877.88;5063300;27;45293;-76
2023/03/16 09:10:14;;;;;;;;;2.33;2.33;;;;;16.72;51.48;100874.34;5071683;28;45562;-76
2023/03/16 09:12:41;;;;;;;;;3.67;3.67;;;;;16.66;50.73;100864.47;5074257;28;47237;-76
2023/03/16 09:15:09;;;;;;;;;3.00;3.00;;;;;16.73;52.16;100873.31;5078241;27;46033;-75
2023/03/16 09:17:35;;;;;;;;;2.00;2.00;;;;;16.74;51.67;100874.97;5065624;28;45637;-76
2023/03/16 09:20:01;;;;;;;;;3.00;3.00;;;;;16.78;51.32;100862.78;5067685;28;45351;-77
2023/03/16 09:22:27;;;;;;;;;3.00;3.00;;;;;16.81;51.55;100868.72;5072636;28;47227;-77
2023/03/16 09:24:52;;;;;;;;;3.00;3.00;;;;;16.94;51.51;100882.09;5075247;27;45405;-76
2023/03/16 09:27:19;;;;;;;;;3.00;3.00;;;;;17.09;50.93;100878.34;5069600;27;45343;-74
2023/03/16 09:29:45;;;;;;;;;3.33;2.33;;;;;17.24;51.00;100878.06;5078613;28;45441;-74
2023/03/16 09:32:11;;;;;;;;;3.00;3.00;;;;;17.36;50.85;100859.41;5078377;27;45432;-75
2023/03/16 09:34:38;;;;;;;;;3.00;3.00;;;;;17.54;50.99;100859.47;5079035;27;45930;-76
2023/03/16 09:37:03;;;;;;;;;2.00;2.00;;;;;17.68;50.28;100845.94;5067202;27;45321;-76
2023/03/16 09:39:28;;;;;;;;;4.00;3.00;;;;;17.80;51.17;100848.72;5079137;27;45528;-76
2023/03/16 09:42:12;;;;;;;;;5.33;3.00;;;;;17.97;50.13;100854.38;5078712;27;45457;-75
2023/03/16 09:45:00;;;;;;;;;4.00;4.00;;;;;18.13;49.93;100852.16;5077909;28;48506;-76
2023/03/16 09:47:29;;;;;;;;;2.67;2.67;;;;;18.32;49.79;100846.81;5078279;28;45496;-75
2023/03/16 09:49:59;;;;;;;;;3.67;3.67;;;;;18.46;48.24;100840.25;5079304;27;45263;-75
2023/03/16 09:52:44;;;;;;;;;4.67;3.67;;;;;18.60;47.93;100846.28;5077733;28;46187;-74
2023/03/16 09:55:27;;;;;;;;;3.00;3.00;;;;;18.74;46.79;100841.53;5077411;28;46960;-74
2023/03/16 09:57:53;;;;;;;;;3.00;3.00;;;;;18.85;46.95;100831.09;5079049;28;45422;-75
2023/03/16 10:00:22;;;;;;;;;3.00;3.00;;;;;18.93;48.17;100831.59;5077445;28;45399;-74
2023/03/16 10:03:02;;;;;;;;;2.33;2.33;;;;;19.11;48.24;100848.78;5078860;27;45244;-75
2023/03/16 10:05:29;;;;;;;;;2.67;2.67;;;;;19.16;46.86;100831.94;5076981;28;48334;-74
2023/03/16 10:08:11;;;;;;;;;2.67;2.67;;;;;19.29;47.91;100839.81;5078802;27;45354;-75
2023/03/16 10:11:21;;;;;;;;;2.00;2.00;;;;;19.44;47.75;100838.53;5074309;27;45889;-76
2023/03/16 10:13:53;;;;;;;;;3.00;2.67;;;;;19.50;47.28;100842.19;5065425;28;45319;-75
2023/03/16 10:16:38;;;;;;;;;3.33;1.33;;;;;19.51;46.82;100828.47;5071004;27;46069;-75
2023/03/16 10:19:17;;;;;;;;;5.00;3.33;;;;;19.61;46.41;100829.78;5075014;28;45437;-76
2023/03/16 10:21:43;;;;;;;;;1.33;1.33;;;;;19.66;46.71;100833.41;5069436;27;45448;-75
2023/03/16 10:24:26;;;;;;;;;3.67;3.00;;;;;19.73;45.16;100827.09;5076854;28;46352;-74
2023/03/16 10:26:58;;;;;;;;;2.00;2.00;;;;;19.73;45.52;100846.81;5074570;28;48382;-76
2023/03/16 10:29:26;;;;;;;;;3.67;3.00;;;;;19.76;45.74;100827.47;5065004;27;45390;-74
2023/03/16 10:31:57;;;;;;;;;2.00;1.00;;;;;19.88;45.63;100832.84;5072712;28;45437;-74
2023/03/16 10:34:24;;;;;;;;;2.00;2.00;;;;;19.88;45.91;100824.78;5077812;27;45597;-76
2023/03/16 10:36:52;;;;;;;;;1.67;1.67;;;;;19.89;45.64;100812.09;5070044;27;45614;-75
2023/03/16 10:39:17;;;;;;;;;2.00;1.00;;;;;20.02;44.95;100813.78;5076576;28;45479;-74
2023/03/16 10:41:46;;;;;;;;;2.00;2.00;;;;;20.12;45.19;100824.78;5076217;27;45214;-76
2023/03/16 10:44:21;;;;;;;;;1.33;1.00;;;;;20.22;45.51;100820.63;5073004;28;45268;-77
2023/03/16 10:46:57;;;;;;;;;1.67;1.67;;;;;20.31;45.26;100811.97;5079105;28;46494;-75
2023/03/16 10:49:41;;;;;;;;;2.00;2.00;;;;;20.44;45.24;100815.41;5080997;27;45469;-76
2023/03/16 10:52:38;;;;;;;;;2.00;1.00;;;;;20.60;45.56;100813.03;5080667;28;45611;-76
2023/03/16 10:55:14;;;;;;;;;2.00;2.00;;;;;20.73;45.44;100803.81;5081722;27;45413;-76
2023/03/16 10:57:42;;;;;;;;;1.00;1.00;;;;;20.86;44.32;100818.94;5073635;27;46169;-76
2023/03/16 11:00:12;;;;;;;;;3.00;1.00;;;;;20.94;44.27;100813.16;5079014;28;45284;-76
2023/03/16 11:02:38;;;;;;;;;1.00;1.00;;;;;21.06;42.75;100805.84;5081773;27;45453;-75
2023/03/16 11:05:33;;;;;;;;;2.33;1.33;;;;;21.13;43.28;100804.84;5081416;28;45362;-76
2023/03/16 11:08:10;;;;;;;;;1.00;1.00;;;;;21.30;42.75;100808.38;5080666;27;46500;-76
2023/03/16 11:10:38;;;;;;;;;2.33;1.00;;;;;21.40;42.75;100804.22;5082064;28;45335;-76
2023/03/16 11:13:16;;;;;;;;;1.00;1.00;;;;;21.53;43.21;100792.25;5071937;27;46489;-76
2023/03/16 11:15:51;;;;;;;;;1.00;1.00;;;;;21.52;44.17;100783.31;5079881;27;45371;-76
2023/03/16 11:18:42;;;;;;;;;1.00;1.00;;;;;21.49;42.59;100783.00;5074739;28;48521;-76
2023/03/16 11:21:16;;;;;;;;;0.00;0.00;;;;;21.42;44.46;100770.47;5075516;28;45293;-75
2023/03/16 11:23:48;;;;;;;;;1.00;1.00;;;;;21.40;43.32;100766.38;5081946;27;45722;-76
2023/03/16 11:26:26;;;;;;;;;1.67;1.00;;;;;21.35;42.50;100772.53;5081552;27;45399;-76
2023/03/16 11:29:02;;;;;;;;;1.33;1.33;;;;;21.34;42.17;100762.75;5081607;27;45346;-77